の過去48時間の天気

Syktyvkar

現在時刻: 8/18 06:31 MSK (8/18 03:31 UTC) 以下の時間は現地時間です。

過去48時間のMETAR気象情報
時間 風向 風速(m/s) 視程 気温(℃) 湿度(%) 気圧(hPa) 天気現象
18 06:00 不定 1 10km以上 11 100 1022
18 05:30 北北東 1 6000m 9 100 1022
18 05:00 静穏 0 750m 7 100 1022
18 04:30 静穏 0 1500m 7 100 1022 もや
18 04:00 静穏 0 3800m 6 100 1022
18 03:30 静穏 0 600m 7 100 1022
18 03:00 1 300m 7 100 1022
18 02:30 静穏 0 1800m 7 100 1021
18 02:00 静穏 0 4300m 7 100 1021
18 01:30 静穏 0 1600m 8 100 1021
18 01:00 不定 1 7000m 8 100 1021 もや
18 00:30 北北東 1 3100m 9 100 1021 もや
18 00:00 南南西 1 7000m 9 100 1020
17 23:30 静穏 0 4600m 9 100 1020 もや
17 23:00 西南西 1 4800m 10 100 1020 もや
17 22:30 静穏 0 7000m 10 100 1020
17 22:00 不定 1 7000m 10 100 1020 地霧
17 21:30 静穏 0 9000m 11 94 1020
17 21:00 静穏 0 10km以上 11 100 1020
17 20:30 静穏 0 10km以上 13 94 1020
17 20:00 静穏 0 10km以上 13 94 1020
17 19:30 静穏 0 10km以上 15 88 1019
17 19:00 静穏 0 10km以上 16 72 1019
17 18:30 静穏 0 10km以上 17 68 1019
17 18:00 不定 1 10km以上 19 56 1019
17 17:30 西 2 10km以上 21 49 1019
17 17:00 静穏 0 10km以上 21 46 1019
17 16:30 西南西 2 10km以上 21 49 1019
17 16:00 西 2 10km以上 21 43 1019
17 15:30 静穏 0 10km以上 22 46 1018
17 15:00 西 2 10km以上 22 43 1019
17 14:30 不定 1 10km以上 22 46 1018
17 14:00 北北西 2 10km以上 22 43 1018
17 13:30 西 2 10km以上 20 46 1018
17 13:00 西 2 10km以上 21 40 1018
17 12:30 西南西 2 10km以上 20 49 1019
17 12:00 西 2 10km以上 19 56 1019
17 11:30 北北西 2 10km以上 19 56 1019
17 11:00 西南西 3 10km以上 19 60 1018
17 10:30 不定 2 10km以上 20 60 1018
17 10:00 不定 1 10km以上 18 64 1018
17 09:30 不定 1 10km以上 19 60 1018
17 09:00 不定 1 10km以上 18 64 1018
17 08:30 南南東 2 10km以上 17 77 1018
17 08:00 不定 1 10km以上 16 82 1018
17 07:30 東北東 1 10km以上 15 82 1018
17 07:00 南南東 1 10km以上 13 94 1018
17 06:30 南南東 2 10km以上 12 94 1018
17 06:00 1 10km以上 11 100 1018
17 05:30 南南西 1 10km以上 10 100 1017
17 05:00 南西 1 10km以上 9 100 1017 もや
17 04:30 静穏 0 3100m 8 100 1017
17 04:00 南南西 1 10km以上 8 100 1017
17 03:30 静穏 0 2400m 8 100 1017
17 03:00 南南西 2 5000m 9 100 1017
17 02:30 南南西 2 5000m 9 100 1017 もや
17 02:00 2 9000m 9 100 1017 散在した霧
17 01:30 南南東 2 10km以上 9 100 1016
17 01:00 南南西 1 10km以上 10 100 1016
17 00:30 南西 1 9000m 11 100 1016
17 00:00 南西 2 10km以上 12 100 1015
16 23:30 南西 2 10km以上 12 94 1015
16 23:00 南西 2 10km以上 12 100 1015
16 22:30 南南西 2 10km以上 12 100 1015
16 22:00 南南西 1 10km以上 12 100 1015
16 21:30 南南西 2 10km以上 13 94 1014
16 21:00 南南西 2 10km以上 13 94 1014
16 20:30 南南西 2 10km以上 15 82 1014
16 20:00 南南西 2 10km以上 15 82 1014
16 19:30 南南西 2 10km以上 15 82 1014
16 19:00 南南西 2 10km以上 16 77 1013
16 18:30 南南西 2 10km以上 17 72 1013
16 18:00 南南西 2 10km以上 18 68 1013
16 17:30 南南西 2 10km以上 18 64 1013
16 17:00 南南西 2 10km以上 19 64 1013
16 16:30 南西 3 10km以上 19 56 1013
16 16:00 南西 3 10km以上 19 60 1013
16 15:30 南西 3 10km以上 19 60 1013
16 15:00 西南西 3 10km以上 19 56 1013
16 14:30 西南西 3 10km以上 19 56 1013
16 14:00 西南西 3 10km以上 19 56 1013
16 13:30 西 3 10km以上 19 60 1013
16 13:00 西南西 3 10km以上 19 60 1013
16 12:30 南西 3 10km以上 19 60 1013
16 12:00 南南西 4 10km以上 18 64 1013
16 11:30 南南西 3 10km以上 18 64 1012
16 11:00 南西 3 10km以上 17 68 1012
16 10:30 南西 3 10km以上 17 68 1012
16 10:00 南西 3 10km以上 17 68 1012
16 09:30 南南西 4 10km以上 16 72 1012
16 09:00 南西 3 10km以上 16 72 1012
16 08:30 南西 3 10km以上 15 77 1012
16 08:00 南西 4 10km以上 14 77 1012
16 07:30 南西 3 10km以上 15 77 1012
16 07:00 西南西 3 10km以上 14 82 1012
UUYY 180300Z VRB01MPS CAVOK 11/11 Q1022 R18/61D NOSIG RMK QFE758/1011
UUYY 180230Z 02001MPS 6000 FEW001 09/09 Q1022 R18/61D TEMPO 0300 FG RMK QBB050 QFE758/1011
UUYY 180200Z 00000MPS 0750 0150N R18/0225N FG SCT001 07/07 Q1022 R18/CLRD61 NOSIG RMK QBB050 QFE758/1011
UUYY 180130Z 00000MPS 1500 1100SW R18/1500D BR SCT001 07/07 Q1022 R18/CLRD61 TEMPO 0300 FG RMK QBB050 QFE758/1011
UUYY 180100Z 00000MPS 3800 0250N R18/0550N FG SCT001 06/06 Q1022 R18/CLRD61 TEMPO 0300 FG RMK QBB050 QFE758/1011
UUYY 180030Z 00000MPS 0600 0300N R18/0650D FG NSC 07/07 Q1022 R18/CLRD61 NOSIG RMK QFE758/1010
UUYY 180000Z 19001MPS 0300 0250SW R18/0800N FG NSC 07/07 Q1022 R18/CLRD61 TEMPO 0300 FG RMK QFE758/1010
UUYY 172330Z 00000MPS 1800 0550N R18/1300D FG SCT003 07/07 Q1021 R18/CLRD61 TEMPO 0300 FG RMK QBB090 QFE758/1010
UUYY 172300Z 00000MPS 4300 0200SW FG NSC 07/07 Q1021 R18/61D TEMPO 0300 FG RMK QFE757/1010
UUYY 172230Z 00000MPS 1600 0800SW R18/P2000U FG NSC 08/08 Q1021 R18/CLRD61 TEMPO 0300 FG RMK QFE757/1010
UUYY 172200Z VRB01MPS 7000 3000N BR NSC 08/08 Q1021 R36/61D TEMPO 0300 FG RMK QFE757/1009
UUYY 172130Z 02001MPS 3100 BR NSC 09/09 Q1021 R36/61D TEMPO 0300 FG RMK QFE756/1008
UUYY 172100Z 20001MPS 7000 NSC 09/09 Q1020 R36/61D TEMPO 0300 FG RMK QFE756/1008
UUYY 172030Z 00000MPS 4600 BR NSC 09/09 Q1020 R36/61D TEMPO 0300 FG RMK QFE756/1008
UUYY 172000Z 24001MPS 4800 BR NSC 10/10 Q1020 R36/61D TEMPO 0300 FG RMK QFE756/1008
UUYY 171930Z 00000MPS 7000 NSC 10/10 Q1020 R36/61D TEMPO 0300 FG RMK QFE756/1008
UUYY 171900Z VRB01MPS 7000 MIFG NSC 10/10 Q1020 R36/61D TEMPO 0300 FG RMK QFE756/1008
UUYY 171830Z 00000MPS 9000 NSC 11/10 Q1020 R18/61D NOSIG RMK QFE756/1009
UUYY 171800Z 00000MPS CAVOK 11/11 Q1020 R18/61D NOSIG RMK QFE756/1009
UUYY 171730Z 00000MPS CAVOK 13/12 Q1020 R18/61D NOSIG RMK QFE756/1008
UUYY 171700Z 00000MPS CAVOK 13/12 Q1020 R36/61D NOSIG RMK QFE755/1007
UUYY 171630Z 00000MPS CAVOK 15/13 Q1019 R36/61D NOSIG RMK QFE755/1007
UUYY 171600Z 00000MPS CAVOK 16/11 Q1019 R18/61D NOSIG RMK QFE756/1008
UUYY 171530Z 00000MPS CAVOK 17/11 Q1019 R36/61D NOSIG RMK QFE755/1007
UUYY 171500Z VRB01MPS 9999 FEW046 19/10 Q1019 R36/61D NOSIG RMK QFE755/1007
UUYY 171430Z 28002MPS 9999 SCT043 21/10 Q1019 R36/61D NOSIG RMK QFE755/1007
UUYY 171400Z 00000MPS 9999 SCT046 21/09 Q1019 R36/61D NOSIG RMK QFE755/1007
UUYY 171330Z 25002MPS 210V280 9999 SCT043 21/10 Q1019 R36/61D NOSIG RMK QFE755/1007
UUYY 171300Z 26002MPS 240V320 9999 FEW046 21/08 Q1019 R36/61D NOSIG RMK QFE755/1006
UUYY 171230Z 00000MPS 9999 FEW043 22/10 Q1018 R36/61D NOSIG RMK QFE755/1006
UUYY 171200Z 28002MPS 250V350 9999 FEW040 22/09 Q1019 R36/61D NOSIG RMK QFE755/1006
UUYY 171130Z VRB01MPS 9999 SCT036 22/10 Q1018 R36/61D NOSIG RMK QFE755/1006
UUYY 171100Z 33002MPS 260V050 9999 FEW040 22/09 Q1018 R36/61D NOSIG RMK QFE755/1006
UUYY 171030Z 26002MPS 220V300 9999 SCT037CB 20/08 Q1018 R36/61D NOSIG RMK QFE755/1006
UUYY 171000Z 26002MPS 200V320 9999 SCT036CB 21/07 Q1018 R36/CLRD61 NOSIG RMK QFE755/1006
UUYY 170930Z 24002MPS 200V270 9999 SCT036CB 20/09 Q1019 R36/61D NOSIG RMK QFE755/1006
UUYY 170900Z 27002MPS 9999 BKN035CB 19/10 Q1019 R36/61D NOSIG RMK QFE755/1006
UUYY 170830Z 33002MPS 300V020 9999 BKN033 19/10 Q1019 R36/61D NOSIG RMK QFE755/1006
UUYY 170800Z 25003MPS 9999 BKN030 19/11 Q1018 R36/61D NOSIG RMK QFE755/1006
UUYY 170730Z VRB02MPS 9999 SCT031 20/12 Q1018 R36/61D NOSIG RMK QFE755/1006
UUYY 170700Z VRB01MPS 9999 SCT031 18/11 Q1018 R36/61D NOSIG RMK QFE755/1006
UUYY 170630Z VRB01MPS 9999 FEW033 19/11 Q1018 R18/61D NOSIG RMK QFE755/1007
UUYY 170600Z VRB01MPS 9999 FEW026 18/11 Q1018 R18/61D NOSIG RMK QFE755/1007
UUYY 170530Z 15002MPS 120V190 CAVOK 17/13 Q1018 R18/61D NOSIG RMK QFE755/1007
UUYY 170500Z VRB01MPS CAVOK 16/13 Q1018 R18/61D NOSIG RMK QFE755/1007
UUYY 170430Z 07001MPS CAVOK 15/12 Q1018 R18/61D NOSIG RMK QFE755/1007
UUYY 170400Z 15001MPS CAVOK 13/12 Q1018 R18/61D NOSIG RMK QFE755/1007
UUYY 170330Z 16002MPS CAVOK 12/11 Q1018 R18/61D NOSIG RMK QFE755/1007
UUYY 170300Z 18001MPS CAVOK 11/11 Q1018 R18/61D TEMPO 0300 FG RMK QFE755/1006
UUYY 170230Z 21001MPS 9999 FEW033 10/10 Q1017 R18/61D TEMPO 0300 FG RMK QFE755/1006
UUYY 170200Z 22001MPS 9999 1900SW BR FEW020 09/09 Q1017 R18/61D TEMPO 0300 FG RMK QFE755/1006
UUYY 170130Z 00000MPS 3100 0400SW FG FEW003 08/08 Q1017 R18/61D TEMPO 0300 FG RMK QBB100 QFE754/1006
UUYY 170100Z 21001MPS 9999 0400SW FG FEW002 08/08 Q1017 R18/61D NOSIG RMK QBB060 QFE754/1006
UUYY 170030Z 00000MPS 2400 0800SW FG FEW002 08/08 Q1017 R18/61D TEMPO 0300 FG RMK QBB060 QFE754/1006
UUYY 170000Z 20002MPS 5000 0700SW FG FEW002 09/09 Q1017 R18/61D TEMPO 0300 FG RMK QBB060 QFE754/1006
UUYY 162330Z 20002MPS 5000 1500SW BR SCT002 09/09 Q1017 R18/61D TEMPO 0300 FG RMK QBB060 QFE754/1005
UUYY 162300Z 18002MPS 9000 0550SW BCFG SCT002 09/09 Q1017 R18/61D TEMPO 0300 FG RMK QBB060 QFE754/1005
UUYY 162230Z 16002MPS CAVOK 09/09 Q1016 R18/61D NOSIG RMK QFE754/1005
UUYY 162200Z 20001MPS CAVOK 10/10 Q1016 R18/61D NOSIG RMK QFE753/1005
UUYY 162130Z 22001MPS 9000 NSC 11/11 Q1016 R18/61D NOSIG RMK QFE753/1004
UUYY 162100Z 22002MPS CAVOK 12/12 Q1015 R18/61D NOSIG RMK QFE753/1004
UUYY 162030Z 22002MPS CAVOK 12/11 Q1015 R18/61D NOSIG RMK QFE753/1004
UUYY 162000Z 22002MPS CAVOK 12/12 Q1015 R18/61D NOSIG RMK QFE753/1004
UUYY 161930Z 21002MPS CAVOK 12/12 Q1015 R18/61D NOSIG RMK QFE753/1004
UUYY 161900Z 20001MPS 9999 FEW046 12/12 Q1015 R18/61D NOSIG RMK QFE752/1003
UUYY 161830Z 21002MPS 9999 FEW046 13/12 Q1014 R18/61D NOSIG RMK QFE752/1003
UUYY 161800Z 20002MPS 9999 FEW046 13/12 Q1014 R18/61D NOSIG RMK QFE752/1003
UUYY 161730Z 21002MPS 9999 SCT046 15/12 Q1014 R18/61D NOSIG RMK QFE752/1003
UUYY 161700Z 21002MPS 9999 FEW046 15/12 Q1014 R18/61D NOSIG RMK QFE752/1003
UUYY 161630Z 20002MPS 9999 FEW040 15/12 Q1014 R18/61D NOSIG RMK QFE752/1002
UUYY 161600Z 20002MPS 9999 SCT040 16/12 Q1013 R18/61D NOSIG RMK QFE752/1002
UUYY 161530Z 21002MPS 9999 FEW040 17/12 Q1013 R18/61D NOSIG RMK QFE751/1002
UUYY 161500Z 20002MPS 9999 FEW040 18/12 Q1013 R18/61D NOSIG RMK QFE751/1002
UUYY 161430Z 20002MPS 160V230 9999 FEW040 18/11 Q1013 R18/61D NOSIG RMK QFE751/1002
UUYY 161400Z 21002MPS 160V240 9999 FEW040 19/12 Q1013 R18/61D NOSIG RMK QFE751/1002
UUYY 161330Z 23003MPS 9999 FEW040 19/10 Q1013 R18/61D NOSIG RMK QFE751/1002
UUYY 161300Z 22003MPS 9999 SCT040 19/11 Q1013 R18/61D NOSIG RMK QFE751/1002
UUYY 161230Z 22003MPS 180V270 9999 SCT040 19/11 Q1013 R18/61D NOSIG RMK QFE751/1002
UUYY 161200Z 24003MPS 200V290 9999 SCT040 19/10 Q1013 R18/61D NOSIG RMK QFE751/1002
UUYY 161130Z 24003MPS 210V310 9999 SCT040 19/10 Q1013 R18/19//55 NOSIG RMK QFE751/1002
UUYY 161100Z 24003MPS 200V350 9999 SCT040 19/10 Q1013 R18/19//55 NOSIG RMK QFE751/1002
UUYY 161030Z 26003MPS 220V320 9999 SCT040 19/11 Q1013 R18/19//55 NOSIG RMK QFE751/1002
UUYY 161000Z 25003MPS 210V280 9999 SCT040 19/11 Q1013 R18/19//55 NOSIG RMK QFE751/1001
UUYY 160930Z 22003MPS 170V260 9999 SCT040 19/11 Q1013 R18/19//55 NOSIG RMK QFE751/1001
UUYY 160900Z 21004MPS 170V250 9999 SCT030 18/11 Q1013 R18/19//55 NOSIG RMK QFE751/1001
UUYY 160830Z 21003MPS 160V260 9999 SCT030 18/11 Q1012 R18/19//55 NOSIG RMK QFE751/1001
UUYY 160800Z 22003MPS 9999 FEW020 17/11 Q1012 R18/19//55 NOSIG RMK QFE751/1001
UUYY 160730Z 22003MPS 9999 FEW020 17/11 Q1012 R18/19//55 NOSIG RMK QFE751/1001
UUYY 160700Z 23003MPS 200V270 9999 FEW020 17/11 Q1012 R18/19//55 NOSIG RMK QFE751/1001
UUYY 160630Z 21004MPS 150V250 9999 FEW020 16/11 Q1012 R18/19//55 NOSIG RMK QFE751/1001
UUYY 160600Z 22003MPS 170V240 CAVOK 16/11 Q1012 R18/19//55 NOSIG RMK QFE751/1001
UUYY 160530Z 23003MPS 170V260 9999 FEW020 15/11 Q1012 R18/19//55 NOSIG RMK QFE751/1001
UUYY 160500Z 23004MPS 9999 FEW019 14/10 Q1012 R18/19//55 NOSIG RMK QFE751/1001
UUYY 160430Z 23003MPS 180V270 9999 FEW017 15/11 Q1012 R18/29//51 NOSIG RMK QFE750/1001
UUYY 160400Z 24003MPS 9999 SCT017 14/11 Q1012 R18/29//51 NOSIG RMK QFE750/1000